This is the latest recevied weather packets stored in our database for station/object WQ5C-13. If no packets are shown the sender has not sent any weather packets the latest 10 day(s).
| Time | Temp. | Humidity | Pressure | Rain* | Wind** | Luminosity | Snow |
|---|---|---|---|---|---|---|---|
| 1777453815 | 23.33° C | 88% | 1011.3 hPa | 0 mm | - | - | - |
| 1777446616 | 23.89° C | 87% | 1011.7 hPa | 0 mm | - | - | - |
| 1777445415 | 23.89° C | 86% | 1012.1 hPa | 0 mm | - | - | - |
| 1777444815 | 23.89° C | 86% | 1012.1 hPa | 0 mm | - | - | - |
| 1777444215 | 23.89° C | 86% | 1012.2 hPa | 0 mm | - | - | - |
| 1777437635 | 24.44° C | 83% | 1011.8 hPa | 0 mm | - | - | - |
| 1777432815 | 25.56° C | 78% | 1011.7 hPa | 0 mm | - | - | - |
| 1777432215 | 25.56° C | 77% | 1011.8 hPa | 0 mm | - | - | - |
| 1777426815 | 26.67° C | 70% | 1010.3 hPa | 0 mm | - | - | - |
| 1777426256 | 26.67° C | 69% | 1010.2 hPa | 0 mm | - | - | - |
| 1777421416 | 28.33° C | 62% | 1009.5 hPa | 0 mm | - | - | - |
| 1777408215 | 28.89° C | 63% | 1011.5 hPa | 0 mm | - | - | - |
| 1777407615 | 28.89° C | 63% | 1011.7 hPa | 0 mm | - | - | - |
| 1777404635 | 27.78° C | 69% | 1012.3 hPa | 0 mm | - | - | - |
| 1777393215 | 24.44° C | 84% | 1013.4 hPa | 0 mm | - | - | - |
| 1777390836 | 23.89° C | 87% | 1013.3 hPa | 0 mm | - | - | - |
| 1777389015 | 23.33° C | 90% | 1013.3 hPa | 0 mm | - | - | - |
| 1777383616 | 22.78° C | 91% | 1012.9 hPa | 0 mm | - | - | - |
| 1777383015 | 22.78° C | 91% | 1012.8 hPa | 0 mm | - | - | - |
| 1777380616 | 22.78° C | 90% | 1012.6 hPa | 0 mm | - | - | - |
| 1777376415 | 23.33° C | 89% | 1011.8 hPa | 0 mm | - | - | - |
| 1777366855 | 23.33° C | 88% | 1011.3 hPa | 0 mm | - | - | - |
| 1777365015 | 23.33° C | 88% | 1011.2 hPa | 0 mm | - | - | - |
| 1777363816 | 23.33° C | 88% | 1011.3 hPa | 0 mm | - | - | - |
| 1777363216 | 23.33° C | 88% | 1011.5 hPa | 0 mm | - | - | - |
* Rain latest hour (hover to see other rain measurements)
** Current wind speed in m/s (hover to see current wind gust speed)